Time;durP1;ratioP1;P1;durP2;ratioP2;P2;SDS_P1;SDS_P2;PMS_P1;PMS_P2;Temp;Humidity;BMP_temperature;BMP_pressure;BME280_temperature;BME280_humidity;BME280_pressure;Samples;Min_cycle;Max_cycle;Signal;HPM_P1;HPM_P2
2022/12/20 00:00:17;;;;;;;27.20;4.43;;;12.30;99.90;;;;;;5032462;28;20032;-82
2022/12/20 00:02:43;;;;;;;16.17;4.05;;;12.30;99.90;;;;;;5042855;28;20095;-83
2022/12/20 00:05:09;;;;;;;26.40;3.80;;;12.40;99.90;;;;;;5023925;28;20187;-82
2022/12/20 00:07:34;;;;;;;23.85;4.43;;;12.40;99.90;;;;;;5042475;28;20155;-82
2022/12/20 00:10:00;;;;;;;17.10;3.90;;;12.40;99.90;;;;;;5025490;28;20101;-82
2022/12/20 00:12:26;;;;;;;21.23;3.75;;;12.40;99.90;;;;;;5043176;28;20393;-82
2022/12/20 00:14:51;;;;;;;20.88;3.97;;;12.40;99.90;;;;;;5036694;28;20670;-81
2022/12/20 00:17:17;;;;;;;19.65;3.63;;;12.40;99.90;;;;;;5042834;28;20059;-82
2022/12/20 00:19:44;;;;;;;18.33;3.15;;;12.50;99.90;;;;;;5039815;28;20115;-81
2022/12/20 00:22:09;;;;;;;25.05;4.05;;;12.50;99.90;;;;;;5043412;28;20475;-81
2022/12/20 00:24:35;;;;;;;21.67;3.92;;;12.60;99.90;;;;;;5024150;28;20056;-82
2022/12/20 00:27:01;;;;;;;18.27;3.33;;;12.50;99.90;;;;;;5023809;28;20028;-82
2022/12/20 00:29:26;;;;;;;22.88;3.55;;;12.50;99.90;;;;;;5043930;28;20132;-82
2022/12/20 00:31:52;;;;;;;26.73;4.15;;;12.50;99.90;;;;;;5023922;28;20028;-81
2022/12/20 00:34:18;;;;;;;26.02;4.75;;;12.50;99.90;;;;;;5042883;28;20029;-81
2022/12/20 00:36:43;;;;;;;19.33;4.47;;;12.50;99.90;;;;;;5042412;28;20025;-82
2022/12/20 00:39:09;;;;;;;20.80;4.40;;;12.50;99.90;;;;;;5023699;28;20047;-82
2022/12/20 00:41:35;;;;;;;20.90;4.80;;;12.40;99.90;;;;;;5042112;28;20049;-82
2022/12/20 00:44:03;;;;;;;32.20;5.53;;;12.40;99.90;;;;;;5023851;28;20040;-82
2022/12/20 00:46:30;;;;;;;29.23;4.50;;;12.40;99.90;;;;;;5023834;28;20027;-82
2022/12/20 00:48:56;;;;;;;23.52;4.10;;;12.40;99.90;;;;;;5042534;28;20465;-82
2022/12/20 00:51:25;;;;;;;28.45;4.60;;;12.40;99.90;;;;;;5042302;28;20036;-82
2022/12/20 00:53:51;;;;;;;22.38;5.40;;;12.40;99.90;;;;;;5040699;28;20036;-82
2022/12/20 00:56:18;;;;;;;22.75;5.53;;;12.40;99.90;;;;;;5041611;28;20033;-82
2022/12/20 00:58:44;;;;;;;20.85;4.32;;;12.50;99.90;;;;;;5042767;28;20037;-82
2022/12/20 01:01:30;;;;;;;16.65;4.45;;;12.50;99.90;;;;;;5041538;28;20039;-82
2022/12/20 01:03:56;;;;;;;23.23;5.15;;;12.40;99.90;;;;;;5041326;28;20129;-82
2022/12/20 01:06:24;;;;;;;18.10;4.07;;;12.40;99.90;;;;;;5040751;28;20036;-82
2022/12/20 01:08:50;;;;;;;21.45;4.25;;;12.40;99.90;;;;;;5040389;28;20048;-82
2022/12/20 01:11:18;;;;;;;24.77;4.55;;;12.50;99.90;;;;;;5020553;28;20044;-82
2022/12/20 01:13:46;;;;;;;17.65;4.40;;;12.40;99.90;;;;;;5041855;28;20025;-82
2022/12/20 01:16:18;;;;;;;21.50;4.13;;;12.40;99.90;;;;;;5023414;28;20087;-82
2022/12/20 01:18:45;;;;;;;17.60;4.43;;;12.40;99.90;;;;;;5023213;28;20419;-81
2022/12/20 01:21:14;;;;;;;16.63;4.50;;;12.50;99.90;;;;;;5023159;28;20056;-82
2022/12/20 01:23:41;;;;;;;24.65;4.28;;;12.50;99.90;;;;;;5023370;28;20055;-82
2022/12/20 01:26:09;;;;;;;25.35;4.88;;;12.50;99.90;;;;;;5041587;28;20381;-82
2022/12/20 01:28:36;;;;;;;20.30;4.38;;;12.50;99.90;;;;;;5022305;28;20088;-83
2022/12/20 01:31:15;;;;;;;18.38;3.97;;;12.50;99.90;;;;;;5023729;28;20215;-83
2022/12/20 01:33:41;;;;;;;18.77;4.50;;;12.50;99.90;;;;;;5040728;28;20074;-83
2022/12/20 01:36:11;;;;;;;22.92;4.50;;;12.50;99.90;;;;;;5023278;28;20029;-82
2022/12/20 01:38:37;;;;;;;24.42;5.18;;;12.50;99.90;;;;;;5017111;28;20195;-82
2022/12/20 01:41:02;;;;;;;18.98;4.03;;;12.50;99.90;;;;;;5040193;28;20063;-83
2022/12/20 01:43:52;;;;;;;25.02;4.68;;;12.50;99.90;;;;;;5039768;28;20302;-83
2022/12/20 01:46:20;;;;;;;23.92;4.50;;;12.50;99.90;;;;;;5039466;28;20045;-82
2022/12/20 01:48:54;;;;;;;23.15;4.18;;;12.50;99.90;;;;;;5010629;28;20059;-83
2022/12/20 01:51:21;;;;;;;25.30;4.38;;;12.40;99.90;;;;;;5022273;28;20084;-82
2022/12/20 01:53:50;;;;;;;18.25;3.83;;;12.40;99.90;;;;;;5039369;28;20029;-82
2022/12/20 01:56:16;;;;;;;20.65;4.30;;;12.40;99.90;;;;;;5040240;28;20021;-83
2022/12/20 01:58:43;;;;;;;20.85;4.20;;;12.30;99.90;;;;;;5041421;28;20056;-82
2022/12/20 02:01:09;;;;;;;23.02;4.57;;;12.30;99.90;;;;;;5021288;28;20112;-81
2022/12/20 02:03:35;;;;;;;33.63;4.95;;;12.30;99.90;;;;;;5038836;28;20032;-82
2022/12/20 02:06:17;;;;;;;24.83;5.10;;;12.30;99.90;;;;;;5040446;28;20081;-82
2022/12/20 02:08:43;;;;;;;;;;;12.30;99.90;;;;;;5037809;28;20037;-81
2022/12/20 02:11:12;;;;;;;21.83;4.40;;;12.20;99.90;;;;;;5022518;28;20403;-82
2022/12/20 02:14:00;;;;;;;20.85;3.97;;;12.10;99.90;;;;;;5039354;28;20112;-82
2022/12/20 02:16:32;;;;;;;20.27;3.53;;;12.20;99.90;;;;;;5009199;28;20496;-82
2022/12/20 02:19:19;;;;;;;22.05;3.78;;;12.20;99.90;;;;;;5037378;28;20051;-82
2022/12/20 02:21:53;;;;;;;15.43;3.75;;;12.10;99.90;;;;;;5039851;28;20103;-83
2022/12/20 02:24:59;;;;;;;19.23;3.83;;;12.10;99.90;;;;;;5027610;28;20460;-83
2022/12/20 02:27:44;;;;;;;13.98;3.08;;;12.10;99.90;;;;;;4989427;28;20191;-81
2022/12/20 02:30:14;;;;;;;16.70;3.50;;;12.20;99.90;;;;;;5020128;28;20535;-83
2022/12/20 02:33:01;;;;;;;17.98;3.30;;;12.20;99.90;;;;;;5019828;28;20412;-82
2022/12/20 02:35:30;;;;;;;12.98;3.22;;;12.20;99.90;;;;;;5040393;28;20025;-82
2022/12/20 02:38:00;;;;;;;20.42;4.82;;;12.20;99.90;;;;;;5021009;28;20030;-83
2022/12/20 02:40:38;;;;;;;24.63;3.55;;;12.20;99.90;;;;;;5021664;28;20133;-83
2022/12/20 02:45:14;;;;;;;21.52;3.42;;;12.20;99.90;;;;;;5021891;28;20125;-84
2022/12/20 02:45:54;;;;;;;20.80;3.15;;;12.20;99.90;;;;;;5039810;28;20045;-83
2022/12/20 02:48:21;;;;;;;20.92;3.67;;;12.20;99.90;;;;;;5025382;28;20057;-83
2022/12/20 02:50:52;;;;;;;17.00;3.25;;;12.20;99.90;;;;;;5025673;28;20078;-83
2022/12/20 02:53:18;;;;;;;12.57;3.30;;;12.20;99.90;;;;;;5039812;28;20032;-82
2022/12/20 02:55:59;;;;;;;13.20;2.92;;;12.30;99.90;;;;;;5020920;28;20029;-82
2022/12/20 02:58:34;;;;;;;;;;;12.30;99.90;;;;;;5009138;28;20427;-83
2022/12/20 03:01:06;;;;;;;16.80;3.20;;;12.20;99.90;;;;;;5021563;28;19974;-83
2022/12/20 03:03:33;;;;;;;16.35;3.28;;;12.20;99.90;;;;;;5038712;28;20364;-83
2022/12/20 03:05:59;;;;;;;9.05;3.05;;;12.20;99.90;;;;;;5020915;28;20040;-83
2022/12/20 03:08:25;;;;;;;14.40;3.97;;;12.20;99.90;;;;;;5019981;28;20106;-82
2022/12/20 03:10:52;;;;;;;14.65;3.30;;;12.20;99.90;;;;;;5021034;28;20037;-83
2022/12/20 03:13:18;;;;;;;19.77;3.78;;;12.20;99.90;;;;;;5040218;28;20571;-82
2022/12/20 03:15:43;;;;;;;22.02;3.65;;;12.20;99.90;;;;;;5022218;28;20044;-84
2022/12/20 03:18:09;;;;;;;17.65;4.15;;;12.20;99.90;;;;;;5016650;28;20500;-83
2022/12/20 03:20:35;;;;;;;14.23;3.70;;;12.20;99.90;;;;;;5019268;28;20037;-83
2022/12/20 03:23:01;;;;;;;15.85;3.47;;;12.10;99.90;;;;;;5039821;28;20541;-83
2022/12/20 03:25:27;;;;;;;18.45;3.58;;;12.10;99.90;;;;;;5021572;28;20032;-84
2022/12/20 03:27:52;;;;;;;17.75;3.63;;;12.10;99.90;;;;;;5011390;28;20293;-83
2022/12/20 03:30:18;;;;;;;16.88;3.83;;;12.10;99.90;;;;;;5023309;28;20115;-83
2022/12/20 03:32:44;;;;;;;13.20;3.95;;;12.10;99.90;;;;;;5017417;28;20093;-83
2022/12/20 03:35:09;;;;;;;19.30;3.97;;;12.10;99.90;;;;;;5025328;28;20108;-83
2022/12/20 03:37:35;;;;;;;16.20;3.40;;;12.20;99.90;;;;;;5021407;28;20461;-83
2022/12/20 03:40:01;;;;;;;20.42;4.40;;;12.20;99.90;;;;;;5021021;28;20182;-83
2022/12/20 03:42:26;;;;;;;18.50;3.97;;;12.30;99.90;;;;;;5021929;28;20037;-84
2022/12/20 03:44:52;;;;;;;21.08;5.15;;;12.20;99.90;;;;;;5019239;28;20021;-83
2022/12/20 03:47:18;;;;;;;17.10;3.70;;;12.20;99.90;;;;;;5022122;28;20041;-84
2022/12/20 03:49:43;;;;;;;21.02;4.88;;;12.20;99.90;;;;;;5020702;28;20033;-83
2022/12/20 03:52:12;;;;;;;20.63;4.90;;;12.20;99.90;;;;;;5039986;28;20378;-83
2022/12/20 03:54:37;;;;;;;23.90;4.63;;;12.20;99.90;;;;;;5040281;28;20055;-83
2022/12/20 03:57:03;;;;;;;14.82;3.95;;;12.20;99.90;;;;;;5026074;28;20026;-83
2022/12/20 03:59:29;;;;;;;26.45;4.45;;;12.20;99.90;;;;;;5028158;28;20090;-83
2022/12/20 04:01:54;;;;;;;17.83;3.47;;;12.30;99.90;;;;;;5018984;28;20036;-83
2022/12/20 04:04:20;;;;;;;20.30;4.45;;;12.30;99.90;;;;;;5024873;28;20033;-83
2022/12/20 04:06:47;;;;;;;20.55;4.30;;;12.30;99.90;;;;;;5042885;28;20243;-82
2022/12/20 04:09:13;;;;;;;22.70;4.85;;;12.40;99.90;;;;;;5025423;28;20128;-82
2022/12/20 04:11:38;;;;;;;24.00;4.72;;;12.40;99.90;;;;;;5038330;28;20103;-83
2022/12/20 04:14:04;;;;;;;25.25;4.30;;;12.40;99.90;;;;;;5014752;28;20452;-83
2022/12/20 04:16:30;;;;;;;16.77;3.80;;;12.40;99.90;;;;;;5029727;28;20446;-83
2022/12/20 04:18:56;;;;;;;20.98;4.43;;;12.30;99.90;;;;;;5023659;28;20025;-83
2022/12/20 04:21:27;;;;;;;13.57;4.13;;;12.40;99.90;;;;;;5021852;28;20485;-84
2022/12/20 04:23:52;;;;;;;14.40;4.10;;;12.40;99.90;;;;;;5024318;28;20025;-84
2022/12/20 04:26:19;;;;;;;16.88;4.30;;;12.40;99.90;;;;;;5024132;28;20048;-84
2022/12/20 04:28:44;;;;;;;25.50;4.45;;;12.30;99.90;;;;;;5022881;28;20510;-84
2022/12/20 04:31:11;;;;;;;14.20;4.13;;;12.20;99.90;;;;;;5023489;28;20040;-84
2022/12/20 04:33:37;;;;;;;18.90;3.83;;;12.20;99.90;;;;;;5024221;28;20507;-84
2022/12/20 04:36:03;;;;;;;20.00;4.40;;;12.10;99.90;;;;;;5023466;28;20025;-83
2022/12/20 04:38:29;;;;;;;21.77;4.63;;;12.20;99.90;;;;;;5020898;28;20552;-83
2022/12/20 04:40:55;;;;;;;15.75;3.88;;;12.20;99.90;;;;;;5022675;28;20077;-83
2022/12/20 04:43:22;;;;;;;18.20;4.53;;;12.20;99.90;;;;;;5040590;28;20029;-83
2022/12/20 04:45:49;;;;;;;19.95;5.03;;;12.20;99.90;;;;;;5045441;28;20040;-82
2022/12/20 04:48:15;;;;;;;22.20;4.78;;;12.20;99.90;;;;;;5040034;28;20044;-83
2022/12/20 04:50:42;;;;;;;21.10;4.63;;;12.20;99.90;;;;;;5024132;28;20028;-83
2022/12/20 04:55:54;;;;;;;25.70;4.97;;;12.20;99.90;;;;;;5042748;28;20108;-84
2022/12/20 04:58:20;;;;;;;17.27;4.13;;;12.20;99.90;;;;;;5040755;28;20120;-84
2022/12/20 05:00:45;;;;;;;17.42;4.20;;;12.20;99.90;;;;;;5023193;28;20112;-84
2022/12/20 05:03:11;;;;;;;19.27;4.20;;;12.20;99.90;;;;;;5022113;28;20025;-84
2022/12/20 05:05:37;;;;;;;16.95;4.63;;;12.20;99.90;;;;;;5041932;28;20518;-84
2022/12/20 05:08:02;;;;;;;15.15;4.15;;;12.30;99.90;;;;;;5042737;28;20033;-83
2022/12/20 05:10:28;;;;;;;18.77;4.30;;;12.40;99.90;;;;;;5042624;28;20025;-82
2022/12/20 05:12:54;;;;;;;28.23;5.10;;;12.40;99.90;;;;;;5041294;28;20435;-82
2022/12/20 05:15:19;;;;;;;20.77;4.13;;;12.50;99.90;;;;;;5024077;28;20064;-83
2022/12/20 05:17:45;;;;;;;15.65;3.30;;;12.60;99.90;;;;;;5040540;28;20029;-82
2022/12/20 05:20:11;;;;;;;15.02;3.70;;;12.60;99.90;;;;;;5009497;28;20467;-83
2022/12/20 05:28:05;;;;;;;20.05;4.60;;;12.50;99.90;;;;;;5036797;28;20052;-83
2022/12/20 05:30:31;;;;;;;23.83;4.95;;;12.40;99.90;;;;;;5018992;28;20021;-83
2022/12/20 05:32:56;;;;;;;19.98;4.32;;;12.50;99.90;;;;;;5036963;28;20068;-83
2022/12/20 05:35:22;;;;;;;26.98;4.18;;;12.50;99.90;;;;;;5019567;28;20032;-83
2022/12/20 05:37:48;;;;;;;17.63;4.00;;;12.50;99.90;;;;;;5039625;28;20114;-83
2022/12/20 05:40:14;;;;;;;23.33;4.72;;;12.50;99.90;;;;;;5031956;28;20068;-81
2022/12/20 05:42:40;;;;;;;20.35;5.47;;;12.50;99.90;;;;;;5034355;28;20044;-83
2022/12/20 05:45:06;;;;;;;17.42;4.18;;;12.50;99.90;;;;;;5020624;28;20085;-82
2022/12/20 05:47:32;;;;;;;24.67;4.90;;;12.50;99.90;;;;;;5021027;28;20223;-81
2022/12/20 05:50:02;;;;;;;19.60;4.65;;;12.60;99.90;;;;;;5037770;28;20116;-83
2022/12/20 05:52:28;;;;;;;17.42;4.60;;;12.50;99.90;;;;;;5035047;28;20032;-83
2022/12/20 05:54:54;;;;;;;22.15;4.50;;;12.50;99.90;;;;;;5032566;28;20037;-84
2022/12/20 05:57:20;;;;;;;19.80;4.50;;;12.40;99.90;;;;;;5033529;28;20349;-82
2022/12/20 05:59:46;;;;;;;20.85;5.10;;;12.40;99.90;;;;;;5039872;28;20514;-82
2022/12/20 06:02:11;;;;;;;25.90;5.18;;;12.30;99.90;;;;;;5021575;28;20480;-81
2022/12/20 06:04:37;;;;;;;22.77;5.28;;;12.30;99.90;;;;;;5034947;28;20170;-82
2022/12/20 06:07:04;;;;;;;22.52;5.60;;;12.20;99.90;;;;;;5028588;28;20025;-82
2022/12/20 06:09:30;;;;;;;23.52;5.68;;;12.20;99.90;;;;;;5024095;28;20367;-82
2022/12/20 06:11:56;;;;;;;23.30;5.28;;;12.10;99.90;;;;;;5029333;28;20044;-82
2022/12/20 06:14:22;;;;;;;24.30;5.05;;;12.10;99.90;;;;;;5036927;28;20028;-82
2022/12/20 06:16:48;;;;;;;26.13;5.32;;;12.10;99.90;;;;;;5019086;28;20029;-82
2022/12/20 06:19:14;;;;;;;20.17;5.18;;;12.20;99.90;;;;;;5020685;28;20032;-81
2022/12/20 06:21:40;;;;;;;19.33;5.38;;;12.10;99.90;;;;;;5015388;28;20033;-82
2022/12/20 06:24:06;;;;;;;28.65;5.45;;;12.10;99.90;;;;;;5017049;28;20029;-82
2022/12/20 06:26:35;;;;;;;25.05;5.38;;;12.10;99.90;;;;;;5018135;28;20493;-82
2022/12/20 06:29:02;;;;;;;22.58;4.75;;;12.20;99.90;;;;;;5036950;28;20044;-82
2022/12/20 06:31:28;;;;;;;19.63;4.68;;;12.20;99.90;;;;;;5032854;28;20070;-83
2022/12/20 06:33:53;;;;;;;23.20;4.70;;;12.30;99.90;;;;;;5028892;28;20411;-82
2022/12/20 06:36:19;;;;;;;19.38;4.47;;;12.30;99.90;;;;;;5019438;28;20711;-82
2022/12/20 06:38:45;;;;;;;27.90;4.90;;;12.40;99.90;;;;;;5036301;28;20033;-83
2022/12/20 06:41:10;;;;;;;25.52;5.15;;;12.40;99.90;;;;;;5018795;28;20060;-81
2022/12/20 06:43:36;;;;;;;21.90;4.82;;;12.40;99.90;;;;;;5037621;28;20096;-82
2022/12/20 06:46:01;;;;;;;23.75;5.15;;;12.50;99.90;;;;;;5021160;28;20033;-82
2022/12/20 06:48:28;;;;;;;24.52;4.97;;;12.40;99.90;;;;;;5017548;28;20124;-82
2022/12/20 06:50:54;;;;;;;29.60;5.57;;;12.50;99.90;;;;;;5029826;28;20024;-81
2022/12/20 06:53:19;;;;;;;29.27;4.30;;;12.40;99.90;;;;;;5037301;28;20460;-83
2022/12/20 06:55:49;;;;;;;21.85;4.70;;;12.40;99.90;;;;;;5016878;28;20124;-82
2022/12/20 06:58:15;;;;;;;23.67;3.72;;;12.40;99.90;;;;;;5018638;28;20040;-83
2022/12/20 07:00:40;;;;;;;22.35;3.90;;;12.40;99.90;;;;;;5014208;28;20466;-83
2022/12/20 07:03:06;;;;;;;17.88;3.40;;;12.30;99.90;;;;;;5018240;28;20048;-84
2022/12/20 07:05:32;;;;;;;16.77;2.58;;;12.30;99.90;;;;;;5016057;28;20028;-81
2022/12/20 07:07:57;;;;;;;17.58;2.72;;;12.40;99.90;;;;;;5034883;28;20399;-83
2022/12/20 07:10:23;;;;;;;13.82;2.22;;;12.30;99.90;;;;;;5030161;28;20021;-84
2022/12/20 07:12:49;;;;;;;20.30;2.92;;;12.20;99.90;;;;;;5023681;28;20049;-84
2022/12/20 07:15:15;;;;;;;21.25;2.90;;;12.30;99.90;;;;;;5016581;28;20078;-83
2022/12/20 07:17:40;;;;;;;12.10;2.40;;;12.20;99.90;;;;;;5029167;28;20087;-84
2022/12/20 07:20:07;;;;;;;17.05;2.65;;;12.00;99.90;;;;;;5035704;28;20044;-84
2022/12/20 07:22:33;;;;;;;22.00;2.72;;;12.00;99.90;;;;;;5012938;28;20086;-86
2022/12/20 07:24:59;;;;;;;16.40;2.92;;;11.90;99.90;;;;;;5024479;28;20032;-84
2022/12/20 07:27:24;;;;;;;20.48;3.30;;;11.80;99.90;;;;;;5024082;28;20106;-84
2022/12/20 07:29:50;;;;;;;21.88;3.33;;;11.80;99.90;;;;;;5015768;28;20037;-81
2022/12/20 07:32:16;;;;;;;19.92;2.92;;;11.70;99.90;;;;;;5012853;28;20133;-83
2022/12/20 07:34:42;;;;;;;25.98;3.40;;;11.70;99.90;;;;;;5016204;28;20433;-83
2022/12/20 07:37:07;;;;;;;18.13;3.65;;;11.70;99.90;;;;;;5023902;28;20165;-83
2022/12/20 07:39:33;;;;;;;23.48;3.70;;;11.70;99.90;;;;;;5022109;28;20029;-83
2022/12/20 07:41:59;;;;;;;24.13;3.25;;;11.60;99.90;;;;;;5022368;28;20429;-83
2022/12/20 07:44:24;;;;;;;23.33;2.80;;;11.40;99.90;;;;;;5040743;28;20037;-81
2022/12/20 07:46:50;;;;;;;22.55;2.97;;;11.30;99.90;;;;;;5017712;28;20103;-83
2022/12/20 07:49:16;;;;;;;33.47;3.03;;;11.30;99.90;;;;;;5042138;28;20028;-84
2022/12/20 07:51:47;;;;;;;26.05;3.70;;;11.10;99.90;;;;;;5040413;28;20035;-83
2022/12/20 07:54:17;;;;;;;17.42;3.50;;;11.00;99.90;;;;;;5029529;28;20124;-83
2022/12/20 07:56:46;;;;;;;18.60;3.50;;;10.80;99.90;;;;;;5014525;28;20040;-83
2022/12/20 07:59:15;;;;;;;23.98;2.90;;;10.70;99.90;;;;;;5022984;28;20029;-84
2022/12/20 08:01:43;;;;;;;25.85;3.05;;;10.60;99.90;;;;;;5020142;28;20119;-83
2022/12/20 08:04:17;;;;;;;23.17;3.25;;;10.60;99.90;;;;;;5018719;28;20021;-84
2022/12/20 08:06:43;;;;;;;19.67;2.97;;;10.50;99.90;;;;;;4669346;28;9999648;-82
2022/12/20 08:09:12;;;;;;;16.77;2.72;;;10.40;99.90;;;;;;5032830;28;20068;-83
2022/12/20 08:11:40;;;;;;;24.90;3.20;;;10.30;99.90;;;;;;5036601;28;20425;-82
2022/12/20 08:14:07;;;;;;;24.05;2.67;;;10.30;99.90;;;;;;5036701;28;20025;-84
2022/12/20 08:16:33;;;;;;;21.00;3.10;;;10.30;99.90;;;;;;5016021;28;20477;-83
2022/12/20 08:18:59;;;;;;;21.17;3.15;;;10.30;99.90;;;;;;5036510;28;20381;-84
2022/12/20 08:21:25;;;;;;;21.98;3.42;;;10.30;99.90;;;;;;5009762;28;20022;-84
2022/12/20 08:23:51;;;;;;;24.73;3.10;;;10.30;99.90;;;;;;5032059;28;20029;-82
2022/12/20 08:26:17;;;;;;;22.55;3.13;;;10.30;99.90;;;;;;5031481;28;20032;-84
2022/12/20 08:28:43;;;;;;;26.83;3.28;;;10.30;99.90;;;;;;5033710;28;20107;-83
2022/12/20 08:31:11;;;;;;;21.45;3.95;;;10.30;99.90;;;;;;5015500;28;20524;-82
2022/12/20 08:33:37;;;;;;;23.65;2.92;;;10.30;99.90;;;;;;5030468;28;20040;-83
2022/12/20 08:36:07;;;;;;;13.75;2.45;;;10.30;99.90;;;;;;5031639;28;20044;-83
2022/12/20 08:38:33;;;;;;;24.50;2.88;;;10.40;99.90;;;;;;5011610;28;20060;-84
2022/12/20 08:41:03;;;;;;;20.05;2.75;;;10.40;99.90;;;;;;5032725;28;20041;-81
2022/12/20 08:43:30;;;;;;;19.37;2.93;;;10.60;99.90;;;;;;5024924;28;20044;-83
2022/12/20 08:45:55;;;;;;;19.35;3.55;;;10.70;99.90;;;;;;5037059;28;20278;-86
2022/12/20 08:48:21;;;;;;;21.10;3.03;;;10.70;99.90;;;;;;5019632;28;20402;-87
2022/12/20 08:51:03;;;;;;;17.83;2.90;;;10.90;99.90;;;;;;5040706;28;20086;-81
2022/12/20 08:53:29;;;;;;;13.98;2.38;;;10.90;99.90;;;;;;5002645;28;20029;-80
2022/12/20 08:56:05;;;;;;;19.02;2.65;;;10.90;99.90;;;;;;5021438;28;20073;-80
2022/12/20 08:58:32;;;;;;;21.10;3.10;;;11.00;99.90;;;;;;5020063;28;20226;-80
2022/12/20 09:01:01;;;;;;;19.63;2.28;;;11.00;99.90;;;;;;5028231;28;20029;-81
2022/12/20 09:03:30;;;;;;;19.92;3.63;;;11.10;99.90;;;;;;5016998;28;20067;-82
2022/12/20 09:05:57;;;;;;;13.38;1.83;;;11.10;99.90;;;;;;5034907;28;20389;-80
2022/12/20 09:08:23;;;;;;;11.05;1.42;;;11.00;99.90;;;;;;5037776;28;20033;-86
2022/12/20 09:10:49;;;;;;;12.27;1.90;;;10.90;99.90;;;;;;5033691;28;20448;-80
2022/12/20 09:13:14;;;;;;;8.55;1.35;;;10.90;99.90;;;;;;5031995;28;20711;-84
2022/12/20 09:15:41;;;;;;;7.50;1.45;;;10.90;99.90;;;;;;5008776;28;20043;-82
2022/12/20 09:18:07;;;;;;;9.68;1.77;;;10.80;99.90;;;;;;5012499;28;20029;-78
2022/12/20 09:20:33;;;;;;;11.85;1.33;;;10.80;99.90;;;;;;5025001;28;20028;-78
2022/12/20 09:22:58;;;;;;;12.15;1.40;;;10.80;99.90;;;;;;5021440;28;20504;-78
2022/12/20 09:25:25;;;;;;;8.60;1.52;;;10.80;99.90;;;;;;5032649;28;20033;-78
2022/12/20 09:27:52;;;;;;;7.45;1.13;;;10.90;99.90;;;;;;5007657;28;20191;-77
2022/12/20 09:30:18;;;;;;;9.10;1.40;;;10.80;99.90;;;;;;5025052;28;20037;-78
2022/12/20 09:32:43;;;;;;;5.65;1.00;;;10.80;99.90;;;;;;5023917;28;20037;-76
2022/12/20 09:35:09;;;;;;;6.15;1.15;;;10.80;99.90;;;;;;5033762;28;20064;-79
2022/12/20 09:37:34;;;;;;;8.80;1.15;;;10.80;99.90;;;;;;5017842;28;20024;-77
2022/12/20 09:40:00;;;;;;;10.93;1.70;;;10.90;99.90;;;;;;5019312;28;20056;-77
2022/12/20 09:42:27;;;;;;;7.53;1.30;;;11.00;99.90;;;;;;5034643;28;20095;-77
2022/12/20 09:44:59;;;;;;;6.78;1.25;;;11.20;99.90;;;;;;5025032;28;20176;-77
2022/12/20 09:47:26;;;;;;;6.13;1.13;;;11.20;99.90;;;;;;5022177;28;20404;-78
2022/12/20 09:49:55;;;;;;;7.65;1.30;;;11.10;99.90;;;;;;5032637;28;20379;-78
2022/12/20 09:52:30;;;;;;;9.68;1.00;;;11.30;99.90;;;;;;5029015;28;20120;-77
2022/12/20 09:55:22;;;;;;;6.60;1.20;;;11.40;99.90;;;;;;5011428;28;20029;-77
2022/12/20 09:58:02;;;;;;;7.78;0.98;;;11.60;99.90;;;;;;5033982;28;20045;-78
2022/12/20 10:00:29;;;;;;;8.00;1.00;;;11.80;99.90;;;;;;5039699;28;20025;-77
2022/12/20 10:02:55;;;;;;;7.00;1.23;;;11.90;99.90;;;;;;5020915;28;20039;-78
2022/12/20 10:05:28;;;;;;;3.33;0.75;;;11.90;99.90;;;;;;5020755;28;20025;-77
2022/12/20 10:08:31;;;;;;;3.80;0.90;;;12.00;99.90;;;;;;5024498;28;20041;-77
2022/12/20 10:11:11;;;;;;;3.50;0.90;;;12.10;99.90;;;;;;5016314;28;20331;-77
2022/12/20 10:14:01;;;;;;;3.70;0.65;;;12.20;99.90;;;;;;5035253;28;20031;-77
2022/12/20 10:16:39;;;;;;;2.33;0.73;;;12.20;99.90;;;;;;5023651;28;20103;-77
2022/12/20 10:19:19;;;;;;;5.60;0.82;;;12.20;99.90;;;;;;5032052;28;20203;-78
2022/12/20 10:22:00;;;;;;;2.10;0.50;;;12.30;99.90;;;;;;5017106;28;20178;-77
2022/12/20 10:24:29;;;;;;;5.43;0.70;;;12.40;99.90;;;;;;5014193;28;20278;-77
2022/12/20 10:27:01;;;;;;;5.55;0.80;;;12.50;99.90;;;;;;5015901;28;20033;-78
2022/12/20 10:29:26;;;;;;;1.23;0.30;;;12.90;99.90;;;;;;5037263;28;20442;-77
2022/12/20 10:31:58;;;;;;;2.75;0.50;;;13.10;99.90;;;;;;5037486;28;20027;-77
2022/12/20 10:34:24;;;;;;;3.83;0.60;;;13.40;99.90;;;;;;5008066;28;20053;-77
2022/12/20 10:37:14;;;;;;;3.20;0.60;;;13.50;99.90;;;;;;5018115;28;20053;-78
2022/12/20 10:39:47;;;;;;;1.63;0.47;;;13.50;99.90;;;;;;4683427;28;10000657;-77
2022/12/20 10:42:42;;;;;;;1.95;0.40;;;13.70;99.90;;;;;;5017287;28;20419;-77
2022/12/20 10:45:17;;;;;;;5.63;0.60;;;14.00;99.90;;;;;;5017844;28;20089;-77
2022/12/20 10:47:45;;;;;;;1.90;0.50;;;14.10;98.70;;;;;;5020330;28;20036;-78
2022/12/20 10:50:17;;;;;;;2.85;0.50;;;14.10;97.30;;;;;;5020083;28;20538;-78
2022/12/20 10:52:44;;;;;;;2.25;0.47;;;14.00;96.80;;;;;;5020931;28;20094;-77
2022/12/20 10:55:42;;;;;;;4.63;0.80;;;13.60;97.60;;;;;;5017848;28;20124;-78
2022/12/20 10:58:20;;;;;;;1.27;0.40;;;13.10;99.30;;;;;;4994702;28;20068;-77
2022/12/20 11:00:46;;;;;;;1.63;0.32;;;12.90;99.90;;;;;;5030744;28;20480;-77
2022/12/20 11:03:19;;;;;;;2.78;0.57;;;12.70;99.90;;;;;;5018614;28;20028;-77
2022/12/20 11:05:58;;;;;;;2.35;0.52;;;12.70;99.90;;;;;;5039424;28;20025;-77
2022/12/20 11:08:26;;;;;;;3.80;0.40;;;12.80;99.90;;;;;;5040898;28;20470;-77
2022/12/20 11:11:15;;;;;;;3.33;0.75;;;13.10;99.90;;;;;;5034350;28;20296;-77
2022/12/20 11:13:41;;;;;;;2.95;0.55;;;13.90;98.00;;;;;;5038243;28;20044;-81
2022/12/20 11:16:23;;;;;;;4.03;0.73;;;14.70;93.90;;;;;;5005967;28;20025;-77
2022/12/20 11:18:54;;;;;;;3.63;0.55;;;15.00;92.00;;;;;;5034807;28;20396;-78
2022/12/20 11:21:39;;;;;;;3.85;0.57;;;15.10;90.00;;;;;;5010080;28;20440;-77
2022/12/20 11:24:15;;;;;;;6.10;0.93;;;15.00;87.60;;;;;;5027879;28;20075;-77
2022/12/20 11:26:53;;;;;;;5.97;0.73;;;14.70;87.80;;;;;;5035034;28;20111;-77
2022/12/20 11:29:40;;;;;;;5.90;0.95;;;14.20;91.10;;;;;;5026474;28;20112;-77
2022/12/20 11:32:27;;;;;;;3.53;0.80;;;13.70;92.20;;;;;;5034447;28;20025;-77
2022/12/20 11:35:11;;;;;;;9.18;0.70;;;13.30;94.40;;;;;;5035091;28;20480;-77
2022/12/20 11:37:54;;;;;;;7.55;0.95;;;12.90;98.30;;;;;;5039818;28;20078;-91
2022/12/20 11:40:52;;;;;;;3.13;0.43;;;13.30;98.20;;;;;;5038696;28;20132;-78
2022/12/20 11:43:21;;;;;;;3.30;0.60;;;13.90;96.50;;;;;;4989306;28;20044;-85
2022/12/20 11:45:46;;;;;;;4.78;0.60;;;14.30;93.90;;;;;;5020011;28;20358;-77
2022/12/20 11:48:28;;;;;;;6.28;0.85;;;14.40;92.70;;;;;;5030766;28;20037;-77
2022/12/20 11:51:19;;;;;;;5.15;1.02;;;13.90;92.60;;;;;;5005117;28;20032;-78
2022/12/20 11:53:56;;;;;;;6.47;1.20;;;14.00;92.60;;;;;;5013294;28;20040;-78
2022/12/20 11:56:28;;;;;;;6.40;1.00;;;13.80;92.10;;;;;;5038041;28;20039;-78
2022/12/20 11:59:15;;;;;;;12.05;1.48;;;14.10;93.20;;;;;;5030741;28;20123;-78
2022/12/20 12:02:00;;;;;;;7.68;1.45;;;13.80;91.80;;;;;;5017536;28;20365;-77
2022/12/20 12:04:30;;;;;;;9.57;1.77;;;13.90;92.80;;;;;;5031729;28;20401;-77
2022/12/20 12:07:07;;;;;;;12.18;2.20;;;13.80;94.00;;;;;;5033469;28;20029;-77
2022/12/20 12:09:38;;;;;;;7.95;2.00;;;13.50;93.30;;;;;;5036592;28;20585;-77
2022/12/20 12:12:25;;;;;;;13.68;1.92;;;13.00;95.40;;;;;;5038998;28;20032;-78
2022/12/20 12:15:25;;;;;;;9.45;1.65;;;12.70;97.40;;;;;;5027178;28;20025;-77
2022/12/20 12:18:17;;;;;;;6.82;1.25;;;12.60;98.70;;;;;;5027836;28;20029;-77
2022/12/20 12:20:51;;;;;;;9.70;1.50;;;12.70;98.20;;;;;;5034776;28;20029;-77
2022/12/20 12:23:35;;;;;;;7.80;1.38;;;12.80;96.10;;;;;;5036142;28;20032;-78
2022/12/20 12:26:09;;;;;;;10.57;1.20;;;13.20;96.40;;;;;;5013392;28;20057;-79
2022/12/20 12:28:35;;;;;;;10.27;1.38;;;13.80;95.20;;;;;;5019753;28;20400;-80
2022/12/20 12:31:15;;;;;;;11.07;1.20;;;14.10;92.10;;;;;;5014513;28;20064;-78
2022/12/20 12:33:49;;;;;;;11.43;1.33;;;14.40;87.70;;;;;;5038441;28;20025;-77
2022/12/20 12:36:27;;;;;;;10.02;1.17;;;14.40;87.60;;;;;;5013696;28;20037;-78
2022/12/20 12:39:02;;;;;;;11.43;1.40;;;14.60;90.00;;;;;;5003928;28;20032;-84
2022/12/20 12:41:33;;;;;;;14.05;1.30;;;14.50;86.30;;;;;;5003237;28;20085;-76
2022/12/20 12:44:17;;;;;;;10.32;1.20;;;14.50;90.30;;;;;;5013008;28;20044;-75
2022/12/20 12:46:46;;;;;;;11.63;1.40;;;14.80;90.70;;;;;;5030417;28;20435;-76
2022/12/20 12:49:18;;;;;;;10.82;1.33;;;15.00;86.40;;;;;;5033022;28;20071;-76
2022/12/20 12:51:51;;;;;;;8.75;1.58;;;14.70;81.10;;;;;;5033762;28;20119;-75
2022/12/20 12:54:43;;;;;;;6.80;1.60;;;14.50;81.40;;;;;;5036663;28;20040;-79
2022/12/20 12:57:15;;;;;;;10.50;1.55;;;14.50;80.40;;;;;;4999824;28;20045;-75
2022/12/20 12:59:45;;;;;;;13.20;1.80;;;14.50;84.30;;;;;;5035533;28;20056;-77
2022/12/20 13:02:19;;;;;;;7.07;1.63;;;14.50;85.90;;;;;;5012943;28;20184;-77